sensor_id;sensor_type;location;lat;lon;timestamp;P1;durP1;ratioP1;P2;durP2;ratioP2
66567;SDS011;53422;49.296;6.900;2022-10-31T00:01:23;9.88;;;3.95;;
66567;SDS011;53422;49.296;6.900;2022-10-31T00:03:53;8.98;;;3.58;;
66567;SDS011;53422;49.296;6.900;2022-10-31T00:06:19;8.80;;;3.95;;
66567;SDS011;53422;49.296;6.900;2022-10-31T00:08:46;12.32;;;3.85;;
66567;SDS011;53422;49.296;6.900;2022-10-31T00:11:16;8.07;;;3.80;;
66567;SDS011;53422;49.296;6.900;2022-10-31T00:13:42;9.45;;;3.72;;
66567;SDS011;53422;49.296;6.900;2022-10-31T00:16:17;9.43;;;3.72;;
66567;SDS011;53422;49.296;6.900;2022-10-31T00:18:47;10.77;;;3.65;;
66567;SDS011;53422;49.296;6.900;2022-10-31T00:21:14;13.02;;;3.58;;
66567;SDS011;53422;49.296;6.900;2022-10-31T00:23:40;9.68;;;3.33;;
66567;SDS011;53422;49.296;6.900;2022-10-31T00:26:05;9.27;;;3.75;;
66567;SDS011;53422;49.296;6.900;2022-10-31T00:28:31;11.23;;;3.55;;
66567;SDS011;53422;49.296;6.900;2022-10-31T00:31:01;9.00;;;3.78;;
66567;SDS011;53422;49.296;6.900;2022-10-31T00:33:29;7.97;;;4.00;;
66567;SDS011;53422;49.296;6.900;2022-10-31T00:35:55;9.57;;;3.83;;
66567;SDS011;53422;49.296;6.900;2022-10-31T00:38:21;10.27;;;3.72;;
66567;SDS011;53422;49.296;6.900;2022-10-31T00:40:47;11.23;;;4.85;;
66567;SDS011;53422;49.296;6.900;2022-10-31T00:43:12;10.05;;;2.97;;
66567;SDS011;53422;49.296;6.900;2022-10-31T00:45:38;8.70;;;4.05;;
66567;SDS011;53422;49.296;6.900;2022-10-31T00:48:07;9.02;;;3.80;;
66567;SDS011;53422;49.296;6.900;2022-10-31T00:50:32;8.68;;;3.75;;
66567;SDS011;53422;49.296;6.900;2022-10-31T00:52:58;7.88;;;3.90;;
66567;SDS011;53422;49.296;6.900;2022-10-31T00:55:24;7.85;;;3.05;;
66567;SDS011;53422;49.296;6.900;2022-10-31T00:57:49;7.65;;;3.92;;
66567;SDS011;53422;49.296;6.900;2022-10-31T01:00:15;8.20;;;3.70;;
66567;SDS011;53422;49.296;6.900;2022-10-31T01:02:41;10.20;;;4.53;;
66567;SDS011;53422;49.296;6.900;2022-10-31T01:05:07;7.60;;;3.55;;
66567;SDS011;53422;49.296;6.900;2022-10-31T01:07:35;8.05;;;3.67;;
66567;SDS011;53422;49.296;6.900;2022-10-31T01:10:02;9.98;;;4.50;;
66567;SDS011;53422;49.296;6.900;2022-10-31T01:12:28;7.10;;;3.58;;
66567;SDS011;53422;49.296;6.900;2022-10-31T01:14:54;8.60;;;3.60;;
66567;SDS011;53422;49.296;6.900;2022-10-31T01:17:19;10.60;;;4.00;;
66567;SDS011;53422;49.296;6.900;2022-10-31T01:19:45;9.18;;;3.70;;
66567;SDS011;53422;49.296;6.900;2022-10-31T01:22:10;8.13;;;3.50;;
66567;SDS011;53422;49.296;6.900;2022-10-31T01:24:36;11.57;;;4.30;;
66567;SDS011;53422;49.296;6.900;2022-10-31T01:27:02;8.77;;;4.10;;
66567;SDS011;53422;49.296;6.900;2022-10-31T01:29:27;9.80;;;3.47;;
66567;SDS011;53422;49.296;6.900;2022-10-31T01:31:53;12.63;;;4.18;;
66567;SDS011;53422;49.296;6.900;2022-10-31T01:34:18;11.80;;;3.97;;
66567;SDS011;53422;49.296;6.900;2022-10-31T01:36:44;11.00;;;4.20;;
66567;SDS011;53422;49.296;6.900;2022-10-31T01:39:16;10.80;;;4.57;;
66567;SDS011;53422;49.296;6.900;2022-10-31T01:41:46;9.05;;;3.75;;
66567;SDS011;53422;49.296;6.900;2022-10-31T01:46:40;8.13;;;3.85;;
66567;SDS011;53422;49.296;6.900;2022-10-31T01:51:55;9.27;;;4.25;;
66567;SDS011;53422;49.296;6.900;2022-10-31T01:54:28;8.88;;;3.50;;
66567;SDS011;53422;49.296;6.900;2022-10-31T01:56:58;11.05;;;3.83;;
66567;SDS011;53422;49.296;6.900;2022-10-31T01:59:27;10.18;;;4.03;;
66567;SDS011;53422;49.296;6.900;2022-10-31T02:01:57;8.02;;;3.42;;
66567;SDS011;53422;49.296;6.900;2022-10-31T02:04:23;11.25;;;3.95;;
66567;SDS011;53422;49.296;6.900;2022-10-31T02:09:20;7.20;;;4.03;;
66567;SDS011;53422;49.296;6.900;2022-10-31T02:11:49;8.85;;;3.95;;
66567;SDS011;53422;49.296;6.900;2022-10-31T02:14:23;12.25;;;4.03;;
66567;SDS011;53422;49.296;6.900;2022-10-31T02:16:51;11.32;;;4.05;;
66567;SDS011;53422;49.296;6.900;2022-10-31T02:19:19;7.25;;;3.75;;
66567;SDS011;53422;49.296;6.900;2022-10-31T02:22:07;10.13;;;4.38;;
66567;SDS011;53422;49.296;6.900;2022-10-31T02:24:44;12.55;;;4.10;;
66567;SDS011;53422;49.296;6.900;2022-10-31T02:30:05;8.55;;;3.97;;
66567;SDS011;53422;49.296;6.900;2022-10-31T02:35:47;11.48;;;3.67;;
66567;SDS011;53422;49.296;6.900;2022-10-31T02:38:45;6.88;;;3.42;;
66567;SDS011;53422;49.296;6.900;2022-10-31T02:49:00;8.65;;;3.50;;
66567;SDS011;53422;49.296;6.900;2022-10-31T02:51:35;6.32;;;3.60;;
66567;SDS011;53422;49.296;6.900;2022-10-31T02:54:02;10.60;;;3.70;;
66567;SDS011;53422;49.296;6.900;2022-10-31T02:56:27;9.30;;;3.92;;
66567;SDS011;53422;49.296;6.900;2022-10-31T02:58:54;10.63;;;3.95;;
66567;SDS011;53422;49.296;6.900;2022-10-31T03:12:40;8.68;;;3.65;;
66567;SDS011;53422;49.296;6.900;2022-10-31T03:20:24;11.05;;;4.70;;
66567;SDS011;53422;49.296;6.900;2022-10-31T03:22:54;11.25;;;4.22;;
66567;SDS011;53422;49.296;6.900;2022-10-31T03:25:22;7.47;;;3.70;;
66567;SDS011;53422;49.296;6.900;2022-10-31T03:27:48;7.35;;;3.28;;
66567;SDS011;53422;49.296;6.900;2022-10-31T03:30:15;6.70;;;3.60;;
66567;SDS011;53422;49.296;6.900;2022-10-31T03:32:49;7.97;;;3.65;;
66567;SDS011;53422;49.296;6.900;2022-10-31T03:35:17;8.93;;;4.20;;
66567;SDS011;53422;49.296;6.900;2022-10-31T03:37:47;7.68;;;3.20;;
66567;SDS011;53422;49.296;6.900;2022-10-31T03:40:14;8.80;;;4.07;;
66567;SDS011;53422;49.296;6.900;2022-10-31T03:42:44;10.23;;;3.95;;
66567;SDS011;53422;49.296;6.900;2022-10-31T03:45:23;8.93;;;3.85;;
66567;SDS011;53422;49.296;6.900;2022-10-31T03:47:52;9.23;;;3.70;;
66567;SDS011;53422;49.296;6.900;2022-10-31T03:50:19;7.03;;;3.72;;
66567;SDS011;53422;49.296;6.900;2022-10-31T03:52:48;9.70;;;3.88;;
66567;SDS011;53422;49.296;6.900;2022-10-31T03:55:29;9.57;;;3.92;;
66567;SDS011;53422;49.296;6.900;2022-10-31T03:57:59;7.07;;;3.33;;
66567;SDS011;53422;49.296;6.900;2022-10-31T04:00:28;9.38;;;3.97;;
66567;SDS011;53422;49.296;6.900;2022-10-31T04:05:34;10.77;;;3.63;;
66567;SDS011;53422;49.296;6.900;2022-10-31T04:08:02;9.95;;;3.83;;
66567;SDS011;53422;49.296;6.900;2022-10-31T04:10:33;8.18;;;3.72;;
66567;SDS011;53422;49.296;6.900;2022-10-31T04:13:03;10.63;;;4.13;;
66567;SDS011;53422;49.296;6.900;2022-10-31T04:15:33;8.00;;;3.67;;
66567;SDS011;53422;49.296;6.900;2022-10-31T04:17:59;9.02;;;3.30;;
66567;SDS011;53422;49.296;6.900;2022-10-31T04:20:31;11.73;;;3.70;;
66567;SDS011;53422;49.296;6.900;2022-10-31T04:23:02;11.00;;;4.22;;
66567;SDS011;53422;49.296;6.900;2022-10-31T04:25:29;12.85;;;4.18;;
66567;SDS011;53422;49.296;6.900;2022-10-31T04:27:54;10.48;;;4.22;;
66567;SDS011;53422;49.296;6.900;2022-10-31T04:30:20;9.68;;;4.22;;
66567;SDS011;53422;49.296;6.900;2022-10-31T04:32:46;10.20;;;4.22;;
66567;SDS011;53422;49.296;6.900;2022-10-31T04:35:11;8.75;;;3.95;;
66567;SDS011;53422;49.296;6.900;2022-10-31T04:37:37;10.25;;;3.95;;
66567;SDS011;53422;49.296;6.900;2022-10-31T04:40:03;9.15;;;3.58;;
66567;SDS011;53422;49.296;6.900;2022-10-31T04:42:29;11.32;;;3.70;;
66567;SDS011;53422;49.296;6.900;2022-10-31T04:44:55;8.90;;;4.07;;
66567;SDS011;53422;49.296;6.900;2022-10-31T04:47:21;9.27;;;3.45;;
66567;SDS011;53422;49.296;6.900;2022-10-31T04:49:47;7.57;;;3.17;;
66567;SDS011;53422;49.296;6.900;2022-10-31T04:52:13;8.00;;;3.45;;
66567;SDS011;53422;49.296;6.900;2022-10-31T04:54:39;12.52;;;4.38;;
66567;SDS011;53422;49.296;6.900;2022-10-31T04:57:05;10.55;;;4.40;;
66567;SDS011;53422;49.296;6.900;2022-10-31T04:59:30;6.80;;;4.03;;
66567;SDS011;53422;49.296;6.900;2022-10-31T05:01:56;8.63;;;3.53;;
66567;SDS011;53422;49.296;6.900;2022-10-31T05:04:22;6.93;;;3.55;;
66567;SDS011;53422;49.296;6.900;2022-10-31T05:06:47;11.35;;;3.38;;
66567;SDS011;53422;49.296;6.900;2022-10-31T05:09:13;8.35;;;3.88;;
66567;SDS011;53422;49.296;6.900;2022-10-31T05:11:38;14.93;;;3.85;;
66567;SDS011;53422;49.296;6.900;2022-10-31T05:14:04;8.95;;;3.75;;
66567;SDS011;53422;49.296;6.900;2022-10-31T05:16:30;8.48;;;3.45;;
66567;SDS011;53422;49.296;6.900;2022-10-31T05:18:55;10.48;;;3.35;;
66567;SDS011;53422;49.296;6.900;2022-10-31T05:21:21;8.50;;;3.47;;
66567;SDS011;53422;49.296;6.900;2022-10-31T05:23:47;8.15;;;3.80;;
66567;SDS011;53422;49.296;6.900;2022-10-31T05:26:12;7.03;;;3.67;;
66567;SDS011;53422;49.296;6.900;2022-10-31T05:28:38;7.82;;;3.13;;
66567;SDS011;53422;49.296;6.900;2022-10-31T05:31:03;7.15;;;3.67;;
66567;SDS011;53422;49.296;6.900;2022-10-31T05:33:29;12.00;;;3.53;;
66567;SDS011;53422;49.296;6.900;2022-10-31T05:35:55;8.82;;;3.75;;
66567;SDS011;53422;49.296;6.900;2022-10-31T05:38:20;6.32;;;3.35;;
66567;SDS011;53422;49.296;6.900;2022-10-31T05:40:46;9.70;;;3.88;;
66567;SDS011;53422;49.296;6.900;2022-10-31T05:43:12;10.88;;;3.90;;
66567;SDS011;53422;49.296;6.900;2022-10-31T05:45:37;6.53;;;3.33;;
66567;SDS011;53422;49.296;6.900;2022-10-31T05:48:03;8.55;;;3.60;;
66567;SDS011;53422;49.296;6.900;2022-10-31T05:50:30;6.57;;;2.85;;
66567;SDS011;53422;49.296;6.900;2022-10-31T05:52:57;7.55;;;3.00;;
66567;SDS011;53422;49.296;6.900;2022-10-31T05:55:28;7.65;;;3.65;;
66567;SDS011;53422;49.296;6.900;2022-10-31T05:57:54;9.73;;;3.30;;
66567;SDS011;53422;49.296;6.900;2022-10-31T06:00:20;5.65;;;3.00;;
66567;SDS011;53422;49.296;6.900;2022-10-31T06:02:47;6.78;;;2.95;;
66567;SDS011;53422;49.296;6.900;2022-10-31T06:05:13;5.28;;;2.65;;
66567;SDS011;53422;49.296;6.900;2022-10-31T06:07:39;7.00;;;3.22;;
66567;SDS011;53422;49.296;6.900;2022-10-31T06:10:05;7.22;;;3.75;;
66567;SDS011;53422;49.296;6.900;2022-10-31T06:12:32;6.25;;;2.83;;
66567;SDS011;53422;49.296;6.900;2022-10-31T06:15:02;6.85;;;3.08;;
66567;SDS011;53422;49.296;6.900;2022-10-31T06:17:30;8.52;;;3.50;;
66567;SDS011;53422;49.296;6.900;2022-10-31T06:19:55;8.55;;;3.92;;
66567;SDS011;53422;49.296;6.900;2022-10-31T06:22:21;8.35;;;3.28;;
66567;SDS011;53422;49.296;6.900;2022-10-31T06:24:46;8.77;;;3.47;;
66567;SDS011;53422;49.296;6.900;2022-10-31T06:27:12;9.07;;;3.72;;
66567;SDS011;53422;49.296;6.900;2022-10-31T06:29:38;11.23;;;3.53;;
66567;SDS011;53422;49.296;6.900;2022-10-31T06:32:04;8.23;;;2.83;;
66567;SDS011;53422;49.296;6.900;2022-10-31T06:34:30;10.13;;;3.10;;
66567;SDS011;53422;49.296;6.900;2022-10-31T06:36:55;8.20;;;3.28;;
66567;SDS011;53422;49.296;6.900;2022-10-31T06:39:21;9.23;;;3.42;;
66567;SDS011;53422;49.296;6.900;2022-10-31T06:41:47;10.07;;;3.20;;
66567;SDS011;53422;49.296;6.900;2022-10-31T06:44:13;7.65;;;3.60;;
66567;SDS011;53422;49.296;6.900;2022-10-31T06:46:39;8.98;;;3.40;;
66567;SDS011;53422;49.296;6.900;2022-10-31T06:49:04;10.18;;;3.65;;
66567;SDS011;53422;49.296;6.900;2022-10-31T06:51:30;11.98;;;3.22;;
66567;SDS011;53422;49.296;6.900;2022-10-31T06:53:55;6.35;;;3.00;;
66567;SDS011;53422;49.296;6.900;2022-10-31T06:56:21;8.10;;;3.35;;
66567;SDS011;53422;49.296;6.900;2022-10-31T06:58:47;7.68;;;3.83;;
66567;SDS011;53422;49.296;6.900;2022-10-31T07:01:16;7.00;;;2.95;;
66567;SDS011;53422;49.296;6.900;2022-10-31T07:03:42;7.03;;;3.55;;
66567;SDS011;53422;49.296;6.900;2022-10-31T07:06:08;8.85;;;3.60;;
66567;SDS011;53422;49.296;6.900;2022-10-31T07:08:33;6.88;;;3.42;;
66567;SDS011;53422;49.296;6.900;2022-10-31T07:10:59;7.28;;;3.15;;
66567;SDS011;53422;49.296;6.900;2022-10-31T07:13:24;7.35;;;3.50;;
66567;SDS011;53422;49.296;6.900;2022-10-31T07:15:51;8.63;;;3.80;;
66567;SDS011;53422;49.296;6.900;2022-10-31T07:18:18;8.48;;;3.40;;
66567;SDS011;53422;49.296;6.900;2022-10-31T07:20:44;6.50;;;3.55;;
66567;SDS011;53422;49.296;6.900;2022-10-31T07:23:10;9.88;;;3.53;;
66567;SDS011;53422;49.296;6.900;2022-10-31T07:25:36;11.82;;;3.90;;
66567;SDS011;53422;49.296;6.900;2022-10-31T07:28:03;6.28;;;3.15;;
66567;SDS011;53422;49.296;6.900;2022-10-31T07:30:28;10.90;;;3.67;;
66567;SDS011;53422;49.296;6.900;2022-10-31T07:32:54;6.55;;;3.63;;
66567;SDS011;53422;49.296;6.900;2022-10-31T07:35:24;8.57;;;3.40;;
66567;SDS011;53422;49.296;6.900;2022-10-31T07:37:51;9.70;;;3.60;;
66567;SDS011;53422;49.296;6.900;2022-10-31T07:40:20;11.32;;;3.95;;
66567;SDS011;53422;49.296;6.900;2022-10-31T07:42:48;11.82;;;4.20;;
66567;SDS011;53422;49.296;6.900;2022-10-31T07:45:16;8.23;;;3.65;;
66567;SDS011;53422;49.296;6.900;2022-10-31T07:50:16;9.02;;;3.97;;
66567;SDS011;53422;49.296;6.900;2022-10-31T07:55:32;9.38;;;4.32;;
66567;SDS011;53422;49.296;6.900;2022-10-31T07:58:02;7.72;;;3.10;;
66567;SDS011;53422;49.296;6.900;2022-10-31T08:00:30;10.07;;;4.20;;
66567;SDS011;53422;49.296;6.900;2022-10-31T08:03:06;7.53;;;4.05;;
66567;SDS011;53422;49.296;6.900;2022-10-31T08:05:34;9.18;;;4.15;;
66567;SDS011;53422;49.296;6.900;2022-10-31T08:08:00;7.47;;;3.50;;
66567;SDS011;53422;49.296;6.900;2022-10-31T08:10:27;10.75;;;4.43;;
66567;SDS011;53422;49.296;6.900;2022-10-31T08:12:56;10.40;;;4.45;;
66567;SDS011;53422;49.296;6.900;2022-10-31T08:15:23;8.20;;;4.03;;
66567;SDS011;53422;49.296;6.900;2022-10-31T08:17:49;7.78;;;3.60;;
66567;SDS011;53422;49.296;6.900;2022-10-31T08:20:15;9.57;;;4.35;;
66567;SDS011;53422;49.296;6.900;2022-10-31T08:22:41;8.32;;;3.88;;
66567;SDS011;53422;49.296;6.900;2022-10-31T08:25:07;8.13;;;4.10;;
66567;SDS011;53422;49.296;6.900;2022-10-31T08:27:33;8.82;;;4.15;;
66567;SDS011;53422;49.296;6.900;2022-10-31T08:29:59;14.55;;;4.38;;
66567;SDS011;53422;49.296;6.900;2022-10-31T08:32:25;11.13;;;4.38;;
66567;SDS011;53422;49.296;6.900;2022-10-31T08:34:50;10.38;;;4.35;;
66567;SDS011;53422;49.296;6.900;2022-10-31T08:37:16;7.45;;;4.50;;
66567;SDS011;53422;49.296;6.900;2022-10-31T08:39:48;12.45;;;4.85;;
66567;SDS011;53422;49.296;6.900;2022-10-31T08:42:13;11.10;;;4.68;;
66567;SDS011;53422;49.296;6.900;2022-10-31T08:44:39;11.88;;;4.30;;
66567;SDS011;53422;49.296;6.900;2022-10-31T08:47:04;9.02;;;4.22;;
66567;SDS011;53422;49.296;6.900;2022-10-31T08:49:30;10.07;;;4.32;;
66567;SDS011;53422;49.296;6.900;2022-10-31T08:51:56;11.73;;;5.03;;
66567;SDS011;53422;49.296;6.900;2022-10-31T08:54:21;15.35;;;4.75;;
66567;SDS011;53422;49.296;6.900;2022-10-31T08:56:47;10.38;;;5.03;;
66567;SDS011;53422;49.296;6.900;2022-10-31T08:59:12;13.13;;;5.25;;
66567;SDS011;53422;49.296;6.900;2022-10-31T09:01:38;9.77;;;4.25;;
66567;SDS011;53422;49.296;6.900;2022-10-31T09:04:04;11.95;;;5.70;;
66567;SDS011;53422;49.296;6.900;2022-10-31T09:06:29;11.45;;;5.10;;
66567;SDS011;53422;49.296;6.900;2022-10-31T09:08:55;14.25;;;5.43;;
66567;SDS011;53422;49.296;6.900;2022-10-31T09:11:20;14.15;;;5.70;;
66567;SDS011;53422;49.296;6.900;2022-10-31T09:13:46;13.00;;;5.60;;
66567;SDS011;53422;49.296;6.900;2022-10-31T09:16:12;13.90;;;6.07;;
66567;SDS011;53422;49.296;6.900;2022-10-31T09:21:13;13.90;;;6.80;;
66567;SDS011;53422;49.296;6.900;2022-10-31T09:23:38;19.05;;;6.03;;
66567;SDS011;53422;49.296;6.900;2022-10-31T09:26:04;12.18;;;5.05;;
66567;SDS011;53422;49.296;6.900;2022-10-31T09:28:29;9.73;;;4.80;;
66567;SDS011;53422;49.296;6.900;2022-10-31T09:30:56;10.05;;;4.72;;
66567;SDS011;53422;49.296;6.900;2022-10-31T09:33:22;12.20;;;5.00;;
66567;SDS011;53422;49.296;6.900;2022-10-31T09:35:48;11.88;;;4.18;;
66567;SDS011;53422;49.296;6.900;2022-10-31T09:38:17;10.07;;;4.35;;
66567;SDS011;53422;49.296;6.900;2022-10-31T09:54:52;14.30;;;4.53;;
66567;SDS011;53422;49.296;6.900;2022-10-31T09:57:29;10.13;;;4.45;;
66567;SDS011;53422;49.296;6.900;2022-10-31T09:59:58;11.32;;;4.47;;
66567;SDS011;53422;49.296;6.900;2022-10-31T10:02:29;11.95;;;5.20;;
66567;SDS011;53422;49.296;6.900;2022-10-31T10:05:10;11.75;;;5.50;;
66567;SDS011;53422;49.296;6.900;2022-10-31T10:10:17;12.05;;;5.03;;
66567;SDS011;53422;49.296;6.900;2022-10-31T10:26:36;7.35;;;2.92;;
66567;SDS011;53422;49.296;6.900;2022-10-31T10:29:07;8.68;;;3.30;;
66567;SDS011;53422;49.296;6.900;2022-10-31T10:31:40;6.10;;;2.70;;
66567;SDS011;53422;49.296;6.900;2022-10-31T10:34:21;7.15;;;3.28;;
66567;SDS011;53422;49.296;6.900;2022-10-31T10:36:51;8.02;;;3.47;;
66567;SDS011;53422;49.296;6.900;2022-10-31T10:39:45;7.25;;;3.95;;
66567;SDS011;53422;49.296;6.900;2022-10-31T10:42:15;9.98;;;4.80;;
66567;SDS011;53422;49.296;6.900;2022-10-31T10:45:00;10.93;;;3.88;;
66567;SDS011;53422;49.296;6.900;2022-10-31T10:47:58;11.63;;;3.90;;
66567;SDS011;53422;49.296;6.900;2022-10-31T10:50:39;7.05;;;3.95;;
66567;SDS011;53422;49.296;6.900;2022-10-31T10:53:25;9.25;;;3.60;;
66567;SDS011;53422;49.296;6.900;2022-10-31T10:56:16;8.23;;;3.20;;
66567;SDS011;53422;49.296;6.900;2022-10-31T10:58:47;8.50;;;3.60;;
66567;SDS011;53422;49.296;6.900;2022-10-31T11:01:14;12.25;;;3.40;;
66567;SDS011;53422;49.296;6.900;2022-10-31T11:03:43;7.72;;;3.08;;
66567;SDS011;53422;49.296;6.900;2022-10-31T11:06:16;7.93;;;2.88;;
66567;SDS011;53422;49.296;6.900;2022-10-31T11:11:49;7.50;;;3.15;;
66567;SDS011;53422;49.296;6.900;2022-10-31T11:14:15;9.43;;;3.45;;
66567;SDS011;53422;49.296;6.900;2022-10-31T11:16:43;6.78;;;2.88;;
66567;SDS011;53422;49.296;6.900;2022-10-31T11:21:46;10.45;;;3.22;;
66567;SDS011;53422;49.296;6.900;2022-10-31T11:24:17;17.45;;;6.97;;
66567;SDS011;53422;49.296;6.900;2022-10-31T11:26:46;6.72;;;3.92;;
66567;SDS011;53422;49.296;6.900;2022-10-31T11:29:21;7.25;;;3.33;;
66567;SDS011;53422;49.296;6.900;2022-10-31T11:31:50;8.40;;;3.33;;
66567;SDS011;53422;49.296;6.900;2022-10-31T11:36:49;8.20;;;3.33;;
66567;SDS011;53422;49.296;6.900;2022-10-31T11:39:17;11.00;;;2.38;;
66567;SDS011;53422;49.296;6.900;2022-10-31T11:41:45;5.72;;;2.35;;
66567;SDS011;53422;49.296;6.900;2022-10-31T11:44:19;5.22;;;2.88;;
66567;SDS011;53422;49.296;6.900;2022-10-31T11:51:54;7.13;;;2.95;;
66567;SDS011;53422;49.296;6.900;2022-10-31T11:54:23;4.93;;;2.20;;
66567;SDS011;53422;49.296;6.900;2022-10-31T11:56:52;8.50;;;3.13;;
66567;SDS011;53422;49.296;6.900;2022-10-31T11:59:20;6.63;;;2.85;;
66567;SDS011;53422;49.296;6.900;2022-10-31T12:01:53;6.53;;;2.83;;
66567;SDS011;53422;49.296;6.900;2022-10-31T12:04:23;6.38;;;2.47;;
66567;SDS011;53422;49.296;6.900;2022-10-31T12:06:56;5.55;;;2.70;;
66567;SDS011;53422;49.296;6.900;2022-10-31T12:09:30;6.85;;;2.60;;
66567;SDS011;53422;49.296;6.900;2022-10-31T12:17:19;5.07;;;2.63;;
66567;SDS011;53422;49.296;6.900;2022-10-31T12:22:25;5.32;;;2.63;;
66567;SDS011;53422;49.296;6.900;2022-10-31T12:34:12;10.65;;;2.60;;
66567;SDS011;53422;49.296;6.900;2022-10-31T12:40:42;9.52;;;2.60;;
66567;SDS011;53422;49.296;6.900;2022-10-31T12:59:59;6.30;;;2.75;;
66567;SDS011;53422;49.296;6.900;2022-10-31T13:06:03;6.68;;;2.55;;
66567;SDS011;53422;49.296;6.900;2022-10-31T13:21:58;5.30;;;2.30;;
66567;SDS011;53422;49.296;6.900;2022-10-31T13:24:33;11.85;;;2.92;;
66567;SDS011;53422;49.296;6.900;2022-10-31T13:27:24;6.10;;;2.13;;
66567;SDS011;53422;49.296;6.900;2022-10-31T13:30:21;9.45;;;2.95;;
66567;SDS011;53422;49.296;6.900;2022-10-31T13:35:31;7.00;;;2.65;;
66567;SDS011;53422;49.296;6.900;2022-10-31T13:40:59;7.43;;;2.42;;
66567;SDS011;53422;49.296;6.900;2022-10-31T13:46:42;6.20;;;2.15;;
66567;SDS011;53422;49.296;6.900;2022-10-31T13:51:53;8.25;;;2.85;;
66567;SDS011;53422;49.296;6.900;2022-10-31T14:01:25;4.68;;;1.98;;
66567;SDS011;53422;49.296;6.900;2022-10-31T14:04:07;5.45;;;2.38;;
66567;SDS011;53422;49.296;6.900;2022-10-31T14:09:36;8.88;;;2.65;;
66567;SDS011;53422;49.296;6.900;2022-10-31T14:12:12;8.07;;;2.47;;
66567;SDS011;53422;49.296;6.900;2022-10-31T14:14:49;6.60;;;2.10;;
66567;SDS011;53422;49.296;6.900;2022-10-31T14:17:19;8.88;;;2.45;;
66567;SDS011;53422;49.296;6.900;2022-10-31T14:19:59;8.38;;;2.35;;
66567;SDS011;53422;49.296;6.900;2022-10-31T14:22:45;9.40;;;2.45;;
66567;SDS011;53422;49.296;6.900;2022-10-31T14:25:34;6.03;;;2.33;;
66567;SDS011;53422;49.296;6.900;2022-10-31T14:28:02;5.35;;;2.30;;
66567;SDS011;53422;49.296;6.900;2022-10-31T14:30:55;11.93;;;3.80;;
66567;SDS011;53422;49.296;6.900;2022-10-31T14:33:54;6.75;;;2.15;;
66567;SDS011;53422;49.296;6.900;2022-10-31T14:47:09;7.40;;;2.58;;
66567;SDS011;53422;49.296;6.900;2022-10-31T14:49:48;7.63;;;2.55;;
66567;SDS011;53422;49.296;6.900;2022-10-31T14:52:25;5.35;;;2.50;;
66567;SDS011;53422;49.296;6.900;2022-10-31T14:54:54;6.07;;;3.10;;
66567;SDS011;53422;49.296;6.900;2022-10-31T14:57:25;8.30;;;3.03;;
66567;SDS011;53422;49.296;6.900;2022-10-31T15:00:01;5.80;;;2.80;;
66567;SDS011;53422;49.296;6.900;2022-10-31T15:02:32;7.63;;;2.78;;
66567;SDS011;53422;49.296;6.900;2022-10-31T15:05:17;5.18;;;2.20;;
66567;SDS011;53422;49.296;6.900;2022-10-31T15:07:56;5.60;;;2.33;;
66567;SDS011;53422;49.296;6.900;2022-10-31T15:10:25;9.13;;;2.88;;
66567;SDS011;53422;49.296;6.900;2022-10-31T15:12:54;8.93;;;2.80;;
66567;SDS011;53422;49.296;6.900;2022-10-31T15:15:21;6.32;;;2.53;;
66567;SDS011;53422;49.296;6.900;2022-10-31T15:17:51;5.40;;;2.50;;
66567;SDS011;53422;49.296;6.900;2022-10-31T15:20:25;5.07;;;2.53;;
66567;SDS011;53422;49.296;6.900;2022-10-31T15:22:53;7.38;;;3.03;;
66567;SDS011;53422;49.296;6.900;2022-10-31T15:25:22;8.98;;;2.85;;
66567;SDS011;53422;49.296;6.900;2022-10-31T15:27:50;16.08;;;4.03;;
66567;SDS011;53422;49.296;6.900;2022-10-31T15:30:21;8.95;;;3.45;;
66567;SDS011;53422;49.296;6.900;2022-10-31T15:32:48;10.52;;;3.53;;
66567;SDS011;53422;49.296;6.900;2022-10-31T15:37:53;9.75;;;3.28;;
66567;SDS011;53422;49.296;6.900;2022-10-31T15:40:20;8.60;;;3.08;;
66567;SDS011;53422;49.296;6.900;2022-10-31T15:42:51;6.18;;;3.38;;
66567;SDS011;53422;49.296;6.900;2022-10-31T15:45:22;7.25;;;3.28;;
66567;SDS011;53422;49.296;6.900;2022-10-31T15:50:37;7.47;;;2.72;;
66567;SDS011;53422;49.296;6.900;2022-10-31T15:53:05;11.57;;;3.00;;
66567;SDS011;53422;49.296;6.900;2022-10-31T15:55:49;9.48;;;2.95;;
66567;SDS011;53422;49.296;6.900;2022-10-31T15:58:25;10.30;;;3.13;;
66567;SDS011;53422;49.296;6.900;2022-10-31T16:03:30;7.47;;;3.13;;
66567;SDS011;53422;49.296;6.900;2022-10-31T16:05:58;11.18;;;3.15;;
66567;SDS011;53422;49.296;6.900;2022-10-31T16:11:15;7.70;;;2.88;;
66567;SDS011;53422;49.296;6.900;2022-10-31T16:13:53;9.10;;;3.03;;
66567;SDS011;53422;49.296;6.900;2022-10-31T16:16:24;6.53;;;2.78;;
66567;SDS011;53422;49.296;6.900;2022-10-31T16:18:51;8.65;;;2.65;;
66567;SDS011;53422;49.296;6.900;2022-10-31T16:21:32;7.72;;;3.10;;
66567;SDS011;53422;49.296;6.900;2022-10-31T16:24:04;8.77;;;3.22;;
66567;SDS011;53422;49.296;6.900;2022-10-31T16:26:47;7.00;;;2.72;;
66567;SDS011;53422;49.296;6.900;2022-10-31T16:31:59;6.93;;;2.72;;
66567;SDS011;53422;49.296;6.900;2022-10-31T16:34:24;9.45;;;4.00;;
66567;SDS011;53422;49.296;6.900;2022-10-31T16:36:50;6.50;;;3.45;;
66567;SDS011;53422;49.296;6.900;2022-10-31T16:39:16;9.82;;;3.25;;
66567;SDS011;53422;49.296;6.900;2022-10-31T16:41:46;7.50;;;3.47;;
66567;SDS011;53422;49.296;6.900;2022-10-31T16:44:21;9.60;;;3.28;;
66567;SDS011;53422;49.296;6.900;2022-10-31T16:47:05;7.95;;;3.15;;
66567;SDS011;53422;49.296;6.900;2022-10-31T16:49:33;9.50;;;3.15;;
66567;SDS011;53422;49.296;6.900;2022-10-31T16:51:59;6.35;;;3.05;;
66567;SDS011;53422;49.296;6.900;2022-10-31T16:54:25;10.18;;;3.10;;
66567;SDS011;53422;49.296;6.900;2022-10-31T16:56:50;6.50;;;2.80;;
66567;SDS011;53422;49.296;6.900;2022-10-31T16:59:16;7.43;;;2.70;;
66567;SDS011;53422;49.296;6.900;2022-10-31T17:01:47;12.48;;;3.00;;
66567;SDS011;53422;49.296;6.900;2022-10-31T17:04:14;9.05;;;3.35;;
66567;SDS011;53422;49.296;6.900;2022-10-31T17:06:40;7.32;;;3.45;;
66567;SDS011;53422;49.296;6.900;2022-10-31T17:09:06;5.90;;;3.35;;
66567;SDS011;53422;49.296;6.900;2022-10-31T17:11:32;6.55;;;3.28;;
66567;SDS011;53422;49.296;6.900;2022-10-31T17:13:59;5.95;;;3.03;;
66567;SDS011;53422;49.296;6.900;2022-10-31T17:16:25;7.88;;;3.55;;
66567;SDS011;53422;49.296;6.900;2022-10-31T17:18:51;8.55;;;3.47;;
66567;SDS011;53422;49.296;6.900;2022-10-31T17:21:23;8.43;;;3.08;;
66567;SDS011;53422;49.296;6.900;2022-10-31T17:23:51;7.60;;;2.97;;
66567;SDS011;53422;49.296;6.900;2022-10-31T17:26:18;9.73;;;3.67;;
66567;SDS011;53422;49.296;6.900;2022-10-31T17:28:43;8.02;;;3.03;;
66567;SDS011;53422;49.296;6.900;2022-10-31T17:31:22;8.40;;;3.45;;
66567;SDS011;53422;49.296;6.900;2022-10-31T17:33:53;9.27;;;3.20;;
66567;SDS011;53422;49.296;6.900;2022-10-31T17:36:19;8.18;;;3.60;;
66567;SDS011;53422;49.296;6.900;2022-10-31T17:38:45;10.73;;;3.45;;
66567;SDS011;53422;49.296;6.900;2022-10-31T17:41:10;7.82;;;3.03;;
66567;SDS011;53422;49.296;6.900;2022-10-31T17:43:36;7.07;;;3.13;;
66567;SDS011;53422;49.296;6.900;2022-10-31T17:46:02;5.97;;;3.00;;
66567;SDS011;53422;49.296;6.900;2022-10-31T17:48:28;9.10;;;2.55;;
66567;SDS011;53422;49.296;6.900;2022-10-31T17:50:54;6.15;;;2.88;;
66567;SDS011;53422;49.296;6.900;2022-10-31T17:53:23;6.80;;;3.15;;
66567;SDS011;53422;49.296;6.900;2022-10-31T17:55:49;8.05;;;3.15;;
66567;SDS011;53422;49.296;6.900;2022-10-31T17:58:15;7.50;;;3.30;;
66567;SDS011;53422;49.296;6.900;2022-10-31T18:00:41;12.40;;;2.72;;
66567;SDS011;53422;49.296;6.900;2022-10-31T18:03:06;5.50;;;2.88;;
66567;SDS011;53422;49.296;6.900;2022-10-31T18:05:33;9.10;;;2.97;;
66567;SDS011;53422;49.296;6.900;2022-10-31T18:07:59;8.05;;;3.70;;